sensor_id;sensor_type;location;lat;lon;timestamp;temperature;humidity
31619;DHT22;18230;51.502;7.108;2022-07-22T00:02:11;17.60;99.90
31619;DHT22;18230;51.502;7.108;2022-07-22T00:07:12;17.70;99.90
31619;DHT22;18230;51.502;7.108;2022-07-22T00:12:13;17.60;99.90
31619;DHT22;18230;51.502;7.108;2022-07-22T00:17:14;17.60;99.90
31619;DHT22;18230;51.502;7.108;2022-07-22T00:22:14;17.60;99.90
31619;DHT22;18230;51.502;7.108;2022-07-22T00:27:15;17.60;99.90
31619;DHT22;18230;51.502;7.108;2022-07-22T00:32:16;17.60;99.90
31619;DHT22;18230;51.502;7.108;2022-07-22T00:37:19;17.60;99.90
31619;DHT22;18230;51.502;7.108;2022-07-22T00:42:20;17.60;99.90
31619;DHT22;18230;51.502;7.108;2022-07-22T00:47:20;17.60;99.90
31619;DHT22;18230;51.502;7.108;2022-07-22T00:52:22;17.60;99.90
31619;DHT22;18230;51.502;7.108;2022-07-22T00:57:22;17.50;99.90
31619;DHT22;18230;51.502;7.108;2022-07-22T01:02:23;17.50;99.90
31619;DHT22;18230;51.502;7.108;2022-07-22T01:07:24;17.60;99.90
31619;DHT22;18230;51.502;7.108;2022-07-22T01:12:25;17.50;99.90
31619;DHT22;18230;51.502;7.108;2022-07-22T01:17:26;17.60;99.90
31619;DHT22;18230;51.502;7.108;2022-07-22T01:22:27;17.60;99.90
31619;DHT22;18230;51.502;7.108;2022-07-22T01:27:27;17.60;99.90
31619;DHT22;18230;51.502;7.108;2022-07-22T01:32:30;17.60;99.90
31619;DHT22;18230;51.502;7.108;2022-07-22T01:37:33;17.60;99.90
31619;DHT22;18230;51.502;7.108;2022-07-22T01:42:33;17.60;99.90
31619;DHT22;18230;51.502;7.108;2022-07-22T01:47:34;17.50;99.90
31619;DHT22;18230;51.502;7.108;2022-07-22T01:52:35;17.50;99.90
31619;DHT22;18230;51.502;7.108;2022-07-22T01:57:37;17.50;99.90
31619;DHT22;18230;51.502;7.108;2022-07-22T02:02:38;17.50;99.90
31619;DHT22;18230;51.502;7.108;2022-07-22T02:07:38;17.50;99.90
31619;DHT22;18230;51.502;7.108;2022-07-22T02:12:39;17.50;99.90
31619;DHT22;18230;51.502;7.108;2022-07-22T02:17:40;17.50;99.90
31619;DHT22;18230;51.502;7.108;2022-07-22T02:22:41;17.50;99.90
31619;DHT22;18230;51.502;7.108;2022-07-22T02:27:42;17.40;99.90
31619;DHT22;18230;51.502;7.108;2022-07-22T02:32:43;17.50;99.90
31619;DHT22;18230;51.502;7.108;2022-07-22T02:37:43;17.40;99.90
31619;DHT22;18230;51.502;7.108;2022-07-22T02:42:44;17.50;99.90
31619;DHT22;18230;51.502;7.108;2022-07-22T02:47:53;17.40;99.90
31619;DHT22;18230;51.502;7.108;2022-07-22T02:52:54;17.40;99.90
31619;DHT22;18230;51.502;7.108;2022-07-22T02:57:55;17.40;99.90
31619;DHT22;18230;51.502;7.108;2022-07-22T03:02:55;17.40;99.90
31619;DHT22;18230;51.502;7.108;2022-07-22T03:07:56;17.40;99.90
31619;DHT22;18230;51.502;7.108;2022-07-22T03:12:57;17.40;99.90
31619;DHT22;18230;51.502;7.108;2022-07-22T03:17:57;17.50;99.90
31619;DHT22;18230;51.502;7.108;2022-07-22T03:22:58;17.50;99.90
31619;DHT22;18230;51.502;7.108;2022-07-22T03:27:59;17.50;99.90
31619;DHT22;18230;51.502;7.108;2022-07-22T03:33:00;17.50;99.90
31619;DHT22;18230;51.502;7.108;2022-07-22T03:38:00;17.50;99.90
31619;DHT22;18230;51.502;7.108;2022-07-22T03:43:02;17.50;99.90
31619;DHT22;18230;51.502;7.108;2022-07-22T03:48:03;17.40;99.90
31619;DHT22;18230;51.502;7.108;2022-07-22T03:53:04;17.40;99.90
31619;DHT22;18230;51.502;7.108;2022-07-22T03:58:05;17.40;99.90
31619;DHT22;18230;51.502;7.108;2022-07-22T04:03:05;17.40;99.90
31619;DHT22;18230;51.502;7.108;2022-07-22T04:08:06;17.40;99.90
31619;DHT22;18230;51.502;7.108;2022-07-22T04:13:07;17.30;99.90
31619;DHT22;18230;51.502;7.108;2022-07-22T04:18:08;17.30;99.90
31619;DHT22;18230;51.502;7.108;2022-07-22T04:23:08;17.30;99.90
31619;DHT22;18230;51.502;7.108;2022-07-22T04:28:09;17.30;99.90
31619;DHT22;18230;51.502;7.108;2022-07-22T04:33:10;17.30;99.90
31619;DHT22;18230;51.502;7.108;2022-07-22T04:38:11;17.30;99.90
31619;DHT22;18230;51.502;7.108;2022-07-22T04:43:13;17.40;99.90
31619;DHT22;18230;51.502;7.108;2022-07-22T04:48:14;17.40;99.90
31619;DHT22;18230;51.502;7.108;2022-07-22T04:53:15;17.40;99.90
31619;DHT22;18230;51.502;7.108;2022-07-22T04:58:15;17.50;99.90
31619;DHT22;18230;51.502;7.108;2022-07-22T05:03:19;17.60;99.90
31619;DHT22;18230;51.502;7.108;2022-07-22T05:08:20;17.80;99.90
31619;DHT22;18230;51.502;7.108;2022-07-22T05:13:20;17.90;99.90
31619;DHT22;18230;51.502;7.108;2022-07-22T05:18:21;17.90;99.90
31619;DHT22;18230;51.502;7.108;2022-07-22T05:23:22;18.00;99.90
31619;DHT22;18230;51.502;7.108;2022-07-22T05:28:22;18.10;99.90
31619;DHT22;18230;51.502;7.108;2022-07-22T05:33:23;18.20;99.90
31619;DHT22;18230;51.502;7.108;2022-07-22T05:38:24;18.20;99.90
31619;DHT22;18230;51.502;7.108;2022-07-22T05:43:24;18.30;99.90
31619;DHT22;18230;51.502;7.108;2022-07-22T05:48:25;18.30;99.90
31619;DHT22;18230;51.502;7.108;2022-07-22T05:53:26;18.30;99.90
31619;DHT22;18230;51.502;7.108;2022-07-22T05:58:26;18.30;99.90
31619;DHT22;18230;51.502;7.108;2022-07-22T06:03:27;18.40;99.90
31619;DHT22;18230;51.502;7.108;2022-07-22T06:08:28;18.50;99.90
31619;DHT22;18230;51.502;7.108;2022-07-22T06:13:29;18.50;99.90
31619;DHT22;18230;51.502;7.108;2022-07-22T06:18:30;18.40;99.90
31619;DHT22;18230;51.502;7.108;2022-07-22T06:23:30;18.40;99.90
31619;DHT22;18230;51.502;7.108;2022-07-22T06:28:32;18.50;99.90
31619;DHT22;18230;51.502;7.108;2022-07-22T06:33:34;18.60;99.90
31619;DHT22;18230;51.502;7.108;2022-07-22T06:38:35;18.70;99.90
31619;DHT22;18230;51.502;7.108;2022-07-22T06:43:36;18.90;99.90
31619;DHT22;18230;51.502;7.108;2022-07-22T06:48:36;18.90;99.90
31619;DHT22;18230;51.502;7.108;2022-07-22T06:53:37;19.00;99.90
31619;DHT22;18230;51.502;7.108;2022-07-22T06:58:38;19.00;99.90
31619;DHT22;18230;51.502;7.108;2022-07-22T07:03:38;19.00;99.90
31619;DHT22;18230;51.502;7.108;2022-07-22T07:08:40;18.80;99.90
31619;DHT22;18230;51.502;7.108;2022-07-22T07:13:40;18.90;99.90
31619;DHT22;18230;51.502;7.108;2022-07-22T07:18:41;18.90;99.90
31619;DHT22;18230;51.502;7.108;2022-07-22T07:23:42;19.00;99.90
31619;DHT22;18230;51.502;7.108;2022-07-22T07:28:42;19.10;99.90
31619;DHT22;18230;51.502;7.108;2022-07-22T07:33:43;19.20;99.90
31619;DHT22;18230;51.502;7.108;2022-07-22T07:38:44;19.30;99.90
31619;DHT22;18230;51.502;7.108;2022-07-22T07:43:44;19.40;99.90
31619;DHT22;18230;51.502;7.108;2022-07-22T07:48:45;19.40;99.90
31619;DHT22;18230;51.502;7.108;2022-07-22T07:53:47;19.50;99.90
31619;DHT22;18230;51.502;7.108;2022-07-22T07:58:48;19.50;99.90
31619;DHT22;18230;51.502;7.108;2022-07-22T08:03:48;19.50;99.90
31619;DHT22;18230;51.502;7.108;2022-07-22T08:08:49;19.60;99.90
31619;DHT22;18230;51.502;7.108;2022-07-22T08:13:50;19.80;99.90
31619;DHT22;18230;51.502;7.108;2022-07-22T08:18:50;19.80;99.90
31619;DHT22;18230;51.502;7.108;2022-07-22T08:23:51;19.70;99.90
31619;DHT22;18230;51.502;7.108;2022-07-22T08:28:52;19.70;99.90
31619;DHT22;18230;51.502;7.108;2022-07-22T08:33:53;19.60;99.90
31619;DHT22;18230;51.502;7.108;2022-07-22T08:38:54;19.70;99.90
31619;DHT22;18230;51.502;7.108;2022-07-22T08:43:55;19.80;99.90
31619;DHT22;18230;51.502;7.108;2022-07-22T08:48:57;19.90;99.90
31619;DHT22;18230;51.502;7.108;2022-07-22T08:54:00;19.90;99.90
31619;DHT22;18230;51.502;7.108;2022-07-22T08:59:01;20.00;99.90
31619;DHT22;18230;51.502;7.108;2022-07-22T09:04:03;20.10;99.90
31619;DHT22;18230;51.502;7.108;2022-07-22T09:09:05;20.10;99.90
31619;DHT22;18230;51.502;7.108;2022-07-22T09:14:06;20.10;99.90
31619;DHT22;18230;51.502;7.108;2022-07-22T09:19:07;20.20;99.90
31619;DHT22;18230;51.502;7.108;2022-07-22T09:24:09;20.20;99.90
31619;DHT22;18230;51.502;7.108;2022-07-22T09:29:25;20.30;99.90
31619;DHT22;18230;51.502;7.108;2022-07-22T09:34:31;20.40;99.90
31619;DHT22;18230;51.502;7.108;2022-07-22T09:39:33;20.40;99.90
31619;DHT22;18230;51.502;7.108;2022-07-22T09:44:34;20.50;99.90
31619;DHT22;18230;51.502;7.108;2022-07-22T09:49:37;20.40;99.90
31619;DHT22;18230;51.502;7.108;2022-07-22T09:54:41;20.50;99.90
31619;DHT22;18230;51.502;7.108;2022-07-22T09:59:42;20.60;99.90
31619;DHT22;18230;51.502;7.108;2022-07-22T10:04:45;20.80;99.90
31619;DHT22;18230;51.502;7.108;2022-07-22T10:09:46;20.90;99.90
31619;DHT22;18230;51.502;7.108;2022-07-22T10:14:48;21.00;99.90
31619;DHT22;18230;51.502;7.108;2022-07-22T10:19:52;20.90;99.90
31619;DHT22;18230;51.502;7.108;2022-07-22T10:24:59;20.80;99.90
31619;DHT22;18230;51.502;7.108;2022-07-22T10:30:01;21.00;99.90
31619;DHT22;18230;51.502;7.108;2022-07-22T10:40:20;21.30;99.90
31619;DHT22;18230;51.502;7.108;2022-07-22T10:45:26;21.70;99.90
31619;DHT22;18230;51.502;7.108;2022-07-22T10:56:24;22.20;99.90
31619;DHT22;18230;51.502;7.108;2022-07-22T11:01:16;22.40;99.90
31619;DHT22;18230;51.502;7.108;2022-07-22T11:06:27;22.70;99.90
31619;DHT22;18230;51.502;7.108;2022-07-22T11:11:39;22.90;99.90
31619;DHT22;18230;51.502;7.108;2022-07-22T11:16:53;22.60;99.90
31619;DHT22;18230;51.502;7.108;2022-07-22T11:22:03;22.50;99.90
31619;DHT22;18230;51.502;7.108;2022-07-22T11:27:13;22.50;99.90
31619;DHT22;18230;51.502;7.108;2022-07-22T11:32:15;22.30;99.90
31619;DHT22;18230;51.502;7.108;2022-07-22T11:37:18;22.30;99.90
31619;DHT22;18230;51.502;7.108;2022-07-22T11:42:19;22.30;99.90
31619;DHT22;18230;51.502;7.108;2022-07-22T11:47:19;22.50;99.90
31619;DHT22;18230;51.502;7.108;2022-07-22T11:52:20;22.80;99.90
31619;DHT22;18230;51.502;7.108;2022-07-22T11:57:21;22.80;99.90
31619;DHT22;18230;51.502;7.108;2022-07-22T12:02:22;22.70;99.90
31619;DHT22;18230;51.502;7.108;2022-07-22T12:07:23;22.90;99.90
31619;DHT22;18230;51.502;7.108;2022-07-22T12:12:39;22.90;99.90
31619;DHT22;18230;51.502;7.108;2022-07-22T12:17:40;23.20;99.90
31619;DHT22;18230;51.502;7.108;2022-07-22T12:22:45;23.50;99.90
31619;DHT22;18230;51.502;7.108;2022-07-22T12:28:02;23.50;99.90
31619;DHT22;18230;51.502;7.108;2022-07-22T12:33:03;23.60;99.90
31619;DHT22;18230;51.502;7.108;2022-07-22T12:38:07;23.70;99.90
31619;DHT22;18230;51.502;7.108;2022-07-22T12:43:25;23.90;99.90
31619;DHT22;18230;51.502;7.108;2022-07-22T12:48:29;24.10;99.90
31619;DHT22;18230;51.502;7.108;2022-07-22T12:53:30;24.20;99.90
31619;DHT22;18230;51.502;7.108;2022-07-22T12:58:33;24.30;99.90
31619;DHT22;18230;51.502;7.108;2022-07-22T13:03:36;24.20;99.90
31619;DHT22;18230;51.502;7.108;2022-07-22T13:08:37;24.10;99.90
31619;DHT22;18230;51.502;7.108;2022-07-22T13:13:38;24.20;99.90
31619;DHT22;18230;51.502;7.108;2022-07-22T13:18:38;24.10;99.90
31619;DHT22;18230;51.502;7.108;2022-07-22T13:23:42;24.10;99.90
31619;DHT22;18230;51.502;7.108;2022-07-22T13:28:43;24.40;99.90
31619;DHT22;18230;51.502;7.108;2022-07-22T13:33:43;24.60;99.90
31619;DHT22;18230;51.502;7.108;2022-07-22T13:38:44;24.50;99.90
31619;DHT22;18230;51.502;7.108;2022-07-22T13:43:45;24.80;99.90
31619;DHT22;18230;51.502;7.108;2022-07-22T13:48:46;24.70;99.90
31619;DHT22;18230;51.502;7.108;2022-07-22T13:53:47;24.70;99.90
31619;DHT22;18230;51.502;7.108;2022-07-22T13:58:48;24.80;99.90
31619;DHT22;18230;51.502;7.108;2022-07-22T14:03:48;24.90;99.90
31619;DHT22;18230;51.502;7.108;2022-07-22T14:08:49;24.80;99.90
31619;DHT22;18230;51.502;7.108;2022-07-22T14:13:51;24.90;99.90
31619;DHT22;18230;51.502;7.108;2022-07-22T14:18:51;25.10;99.90
31619;DHT22;18230;51.502;7.108;2022-07-22T14:23:52;24.50;99.90
31619;DHT22;18230;51.502;7.108;2022-07-22T14:28:53;24.30;99.90
31619;DHT22;18230;51.502;7.108;2022-07-22T14:33:55;24.90;99.90
31619;DHT22;18230;51.502;7.108;2022-07-22T14:38:55;25.20;99.90
31619;DHT22;18230;51.502;7.108;2022-07-22T14:43:56;25.90;99.90
31619;DHT22;18230;51.502;7.108;2022-07-22T14:48:57;26.00;99.90
31619;DHT22;18230;51.502;7.108;2022-07-22T14:53:57;26.00;99.90
31619;DHT22;18230;51.502;7.108;2022-07-22T14:58:58;26.20;99.90
31619;DHT22;18230;51.502;7.108;2022-07-22T15:03:59;26.40;99.90
31619;DHT22;18230;51.502;7.108;2022-07-22T15:09:00;26.40;99.90
31619;DHT22;18230;51.502;7.108;2022-07-22T15:14:00;26.50;99.90
31619;DHT22;18230;51.502;7.108;2022-07-22T15:19:01;26.00;99.90
31619;DHT22;18230;51.502;7.108;2022-07-22T15:24:02;26.00;99.90
31619;DHT22;18230;51.502;7.108;2022-07-22T15:29:03;26.30;99.90
31619;DHT22;18230;51.502;7.108;2022-07-22T15:34:03;26.30;99.90
31619;DHT22;18230;51.502;7.108;2022-07-22T15:39:04;26.10;99.90
31619;DHT22;18230;51.502;7.108;2022-07-22T15:44:06;26.00;99.90
31619;DHT22;18230;51.502;7.108;2022-07-22T15:49:07;26.20;99.90
31619;DHT22;18230;51.502;7.108;2022-07-22T15:54:08;25.80;99.90
31619;DHT22;18230;51.502;7.108;2022-07-22T15:59:09;25.70;99.90
31619;DHT22;18230;51.502;7.108;2022-07-22T16:04:28;25.60;99.90
31619;DHT22;18230;51.502;7.108;2022-07-22T16:09:28;25.50;99.90
31619;DHT22;18230;51.502;7.108;2022-07-22T16:14:29;25.70;99.90
31619;DHT22;18230;51.502;7.108;2022-07-22T16:19:30;25.50;99.90
31619;DHT22;18230;51.502;7.108;2022-07-22T16:24:31;25.60;99.90
31619;DHT22;18230;51.502;7.108;2022-07-22T16:29:31;25.80;99.90
31619;DHT22;18230;51.502;7.108;2022-07-22T16:34:32;25.80;99.90
31619;DHT22;18230;51.502;7.108;2022-07-22T16:39:33;26.30;99.90
31619;DHT22;18230;51.502;7.108;2022-07-22T16:44:34;26.40;99.90
31619;DHT22;18230;51.502;7.108;2022-07-22T16:49:36;25.80;99.90
31619;DHT22;18230;51.502;7.108;2022-07-22T16:54:36;25.40;99.90
31619;DHT22;18230;51.502;7.108;2022-07-22T16:59:37;25.10;99.90
31619;DHT22;18230;51.502;7.108;2022-07-22T17:04:38;24.90;99.90
31619;DHT22;18230;51.502;7.108;2022-07-22T17:09:39;24.70;99.90
31619;DHT22;18230;51.502;7.108;2022-07-22T17:14:39;24.50;99.90
31619;DHT22;18230;51.502;7.108;2022-07-22T17:19:40;24.40;99.90
31619;DHT22;18230;51.502;7.108;2022-07-22T17:24:41;24.60;99.90
31619;DHT22;18230;51.502;7.108;2022-07-22T17:29:49;24.50;99.90
31619;DHT22;18230;51.502;7.108;2022-07-22T17:34:49;24.50;99.90
31619;DHT22;18230;51.502;7.108;2022-07-22T17:39:50;24.20;99.90
31619;DHT22;18230;51.502;7.108;2022-07-22T17:44:51;24.10;99.90
31619;DHT22;18230;51.502;7.108;2022-07-22T17:49:52;23.90;99.90
31619;DHT22;18230;51.502;7.108;2022-07-22T17:54:56;23.90;99.90
31619;DHT22;18230;51.502;7.108;2022-07-22T17:59:56;23.80;99.90
31619;DHT22;18230;51.502;7.108;2022-07-22T18:04:57;23.80;99.90
31619;DHT22;18230;51.502;7.108;2022-07-22T18:09:58;23.60;99.90
31619;DHT22;18230;51.502;7.108;2022-07-22T18:14:58;23.40;99.90
31619;DHT22;18230;51.502;7.108;2022-07-22T18:20:03;23.50;99.90
31619;DHT22;18230;51.502;7.108;2022-07-22T18:25:04;23.30;99.90
31619;DHT22;18230;51.502;7.108;2022-07-22T18:30:08;23.00;99.90
31619;DHT22;18230;51.502;7.108;2022-07-22T18:35:09;22.90;99.90
31619;DHT22;18230;51.502;7.108;2022-07-22T18:40:10;22.70;99.90
31619;DHT22;18230;51.502;7.108;2022-07-22T18:45:11;22.70;99.90
31619;DHT22;18230;51.502;7.108;2022-07-22T18:50:12;22.60;99.90
31619;DHT22;18230;51.502;7.108;2022-07-22T18:55:13;22.40;99.90
31619;DHT22;18230;51.502;7.108;2022-07-22T19:00:15;22.30;99.90
31619;DHT22;18230;51.502;7.108;2022-07-22T19:05:15;22.20;99.90
31619;DHT22;18230;51.502;7.108;2022-07-22T19:10:16;22.10;99.90
31619;DHT22;18230;51.502;7.108;2022-07-22T19:15:17;22.00;99.90
31619;DHT22;18230;51.502;7.108;2022-07-22T19:20:17;22.00;99.90
31619;DHT22;18230;51.502;7.108;2022-07-22T19:25:18;22.00;99.90
31619;DHT22;18230;51.502;7.108;2022-07-22T19:30:19;22.00;99.90
31619;DHT22;18230;51.502;7.108;2022-07-22T19:35:20;21.90;99.90
31619;DHT22;18230;51.502;7.108;2022-07-22T19:40:20;21.90;99.90
31619;DHT22;18230;51.502;7.108;2022-07-22T19:45:21;21.70;99.90
31619;DHT22;18230;51.502;7.108;2022-07-22T19:50:22;21.60;99.90
31619;DHT22;18230;51.502;7.108;2022-07-22T19:55:24;21.40;99.90
31619;DHT22;18230;51.502;7.108;2022-07-22T20:00:25;21.30;99.90
31619;DHT22;18230;51.502;7.108;2022-07-22T20:05:25;21.20;99.90
31619;DHT22;18230;51.502;7.108;2022-07-22T20:10:26;21.20;99.90
31619;DHT22;18230;51.502;7.108;2022-07-22T20:15:27;21.10;99.90
31619;DHT22;18230;51.502;7.108;2022-07-22T20:20:28;20.90;99.90
31619;DHT22;18230;51.502;7.108;2022-07-22T20:25:28;20.80;99.90
31619;DHT22;18230;51.502;7.108;2022-07-22T20:30:29;20.80;99.90
31619;DHT22;18230;51.502;7.108;2022-07-22T20:35:30;20.70;99.90
31619;DHT22;18230;51.502;7.108;2022-07-22T20:40:31;20.60;99.90
31619;DHT22;18230;51.502;7.108;2022-07-22T20:45:31;20.60;99.90
31619;DHT22;18230;51.502;7.108;2022-07-22T20:50:32;20.50;99.90
31619;DHT22;18230;51.502;7.108;2022-07-22T20:55:33;20.50;99.90
31619;DHT22;18230;51.502;7.108;2022-07-22T21:00:33;20.50;99.90
31619;DHT22;18230;51.502;7.108;2022-07-22T21:05:34;20.40;99.90
31619;DHT22;18230;51.502;7.108;2022-07-22T21:10:35;20.30;99.90
31619;DHT22;18230;51.502;7.108;2022-07-22T21:15:36;20.20;99.90
31619;DHT22;18230;51.502;7.108;2022-07-22T21:20:37;20.20;99.90
31619;DHT22;18230;51.502;7.108;2022-07-22T21:25:38;20.30;99.90
31619;DHT22;18230;51.502;7.108;2022-07-22T21:30:39;20.20;99.90
31619;DHT22;18230;51.502;7.108;2022-07-22T21:35:40;20.30;99.90
31619;DHT22;18230;51.502;7.108;2022-07-22T21:40:41;20.10;99.90
31619;DHT22;18230;51.502;7.108;2022-07-22T21:45:42;20.20;99.90
31619;DHT22;18230;51.502;7.108;2022-07-22T21:50:49;20.30;99.90
31619;DHT22;18230;51.502;7.108;2022-07-22T21:55:49;20.30;99.90
31619;DHT22;18230;51.502;7.108;2022-07-22T22:01:09;20.40;99.90
31619;DHT22;18230;51.502;7.108;2022-07-22T22:06:10;20.40;99.90
31619;DHT22;18230;51.502;7.108;2022-07-22T22:11:10;20.40;99.90
31619;DHT22;18230;51.502;7.108;2022-07-22T22:16:11;20.20;99.90
31619;DHT22;18230;51.502;7.108;2022-07-22T22:21:12;20.00;99.90
31619;DHT22;18230;51.502;7.108;2022-07-22T22:26:13;20.10;99.90
31619;DHT22;18230;51.502;7.108;2022-07-22T22:31:14;20.20;99.90
31619;DHT22;18230;51.502;7.108;2022-07-22T22:36:15;20.10;99.90
31619;DHT22;18230;51.502;7.108;2022-07-22T22:41:16;20.20;99.90
31619;DHT22;18230;51.502;7.108;2022-07-22T22:46:17;20.20;99.90
31619;DHT22;18230;51.502;7.108;2022-07-22T22:51:17;20.20;99.90
31619;DHT22;18230;51.502;7.108;2022-07-22T22:56:18;20.10;99.90
31619;DHT22;18230;51.502;7.108;2022-07-22T23:01:19;20.10;99.90
31619;DHT22;18230;51.502;7.108;2022-07-22T23:06:19;20.10;99.90
31619;DHT22;18230;51.502;7.108;2022-07-22T23:11:20;20.10;99.90
31619;DHT22;18230;51.502;7.108;2022-07-22T23:16:21;20.10;99.90
31619;DHT22;18230;51.502;7.108;2022-07-22T23:21:22;20.10;99.90
31619;DHT22;18230;51.502;7.108;2022-07-22T23:26:23;20.10;99.90
31619;DHT22;18230;51.502;7.108;2022-07-22T23:31:24;20.10;99.90
31619;DHT22;18230;51.502;7.108;2022-07-22T23:36:25;19.90;99.90
31619;DHT22;18230;51.502;7.108;2022-07-22T23:41:29;19.80;99.90
31619;DHT22;18230;51.502;7.108;2022-07-22T23:46:29;19.60;99.90
31619;DHT22;18230;51.502;7.108;2022-07-22T23:51:30;19.40;99.90
31619;DHT22;18230;51.502;7.108;2022-07-22T23:56:37;19.30;99.90
